Spottwood, South Dakota
Current Conditions -  °F | °C
As of 8:55 AM on Friday 31 Oct 2014 (Local Time) from KHON Reporting Station
Clear Clear  
Wind Chill: 15°   Ceiling: Unl
Heat Index: 15°   Visibility: 10mi
Dew Point: 10°   Wind: 0mph
Humidity: 80%   Direction: NA
Pressure: 30.59"   Gusts: NA
Location:  44.7205°N, 98.5844°W
Report Text: KHON 311355Z AUTO 00000KT 10SM CLR M09/M12 A3059 RMK AO2 SLP380 T10941122 $
Loading
Personal Weather Stations






























Interactive Weather Map New forecast layout! Learn more

10-Day Weather Forecast

Advertisements
Track Severe Weather on mobile